Dades meteomassalio
Diari Summary for Diciembre 22, 2017 Units:  Metric    English   Both
« Previous Day
Next Day »
Diari Semanal Mensual Anual Personalitzat
  Maxima: Minima: Mijana:
Temperatura: -17.8 °C -18.4 °C -15.3 °C
Rosada: -17.8 °C -19.7 °C -17.6 °C
Humitat: Humidity % 57 % 76 %
Velocitat del vent: 0 km/h 0 km/h 14.2 km/h
Racha vent: 0 km/h - -
Vent:- - NW
Pressio: 0 hPa 35082.3 hPa -
Pluja: 0 mm    
Historical Graphs
 
 
Tabular Data for Diciembre 22, 2017
Time Temperature Dew Point Pressure Wind Wind Speed Wind Gust Humidity Rainfall Rate (Hourly) solar Conditions
-17.8 °C -17.8 °C 0 hPa Calm     Humidity % 0 mm SolarRadiationWatts/m^2 W/m2 Conditions
00:01 -17.2 °C -18.4 °C 35221.2 hPa Calm     85 % 0 mm 0.0 W/m2 CLR
00:02 -17.2 °C -18.4 °C 35221.2 hPa Calm     85 % 0 mm 0.0 W/m2 CLR
00:07 -16.8 °C -18.2 °C 35207.6 hPa Calm     84 % 0 mm 0.0 W/m2 CLR
00:10 -17.2 °C -18.4 °C 35207.6 hPa Calm     85 % 0 mm 0.0 W/m2 CLR
00:12 -17.2 °C -18.2 °C 35207.6 hPa Calm     87 % 0 mm 0.0 W/m2 CLR
00:14 -17.2 °C -18.2 °C 35207.6 hPa Calm     87 % 0 mm 0.0 W/m2 CLR
00:19 -17.2 °C -18.3 °C 35207.6 hPa Calm     86 % 0 mm 0.0 W/m2 CLR
00:20 -17.2 °C -18.3 °C 35207.6 hPa Calm     86 % 0 mm 0.0 W/m2 CLR
00:21 -17.2 °C -18.3 °C 35207.6 hPa Calm     86 % 0 mm 0.0 W/m2 CLR
00:26 -17.2 °C -18.4 °C 35207.6 hPa Calm     85 % 0 mm 0.0 W/m2 CLR
00:30 -17.2 °C -18.3 °C 35207.6 hPa Calm     86 % 0 mm 0.0 W/m2 CLR
00:33 -17.2 °C -18.3 °C 35207.6 hPa Calm     86 % 0 mm 0.0 W/m2 CLR
00:38 -17.4 °C -18.6 °C 35197.5 hPa Calm     86 % 0 mm 0.0 W/m2 CLR
00:42 -17.4 °C -18.4 °C 35197.5 hPa Calm     88 % 0 mm 0.0 W/m2 CLR
00:44 -17.4 °C -18.5 °C 35197.5 hPa Calm     87 % 0 mm 0.0 W/m2 CLR
00:49 -17.4 °C -18.6 °C 35197.5 hPa Calm     86 % 0 mm 0.0 W/m2 CLR
00:54 -17.8 °C -18.8 °C 35197.5 hPa Calm     87 % 0 mm 0.0 W/m2 CLR
00:59 -17.8 °C -18.8 °C 35197.5 hPa Calm     87 % 0 mm 0.0 W/m2 CLR
01:00 -17.8 °C -18.8 °C 35197.5 hPa Calm     87 % 0 mm 0.0 W/m2 CLR
01:01 -17.8 °C -18.8 °C 35187.3 hPa Calm     87 % 0 mm 0.0 W/m2 CLR
01:06 -17.8 °C -18.8 °C 35187.3 hPa Calm     87 % 0 mm 0.0 W/m2 CLR
01:07 -17.8 °C -18.8 °C 35187.3 hPa Calm     87 % 0 mm 0.0 W/m2 CLR
01:12 -17.8 °C -18.8 °C 35187.3 hPa Calm     87 % 0 mm 0.0 W/m2 CLR
01:14 -17.8 °C -18.8 °C 35187.3 hPa Calm     87 % 0 mm 0.0 W/m2 CLR
01:18 -17.8 °C -18.8 °C 35187.3 hPa Calm     88 % 0 mm 0.0 W/m2 CLR
01:21 -17.8 °C -18.8 °C 35187.3 hPa Calm     87 % 0 mm 0.0 W/m2 CLR
01:22 -17.4 °C -18.5 °C 35187.3 hPa Calm     87 % 0 mm 0.0 W/m2 CLR
01:25 -17.2 °C -18.2 °C 35187.3 hPa Calm     88 % 0 mm 0.0 W/m2 CLR
01:30 -17.2 °C -18.2 °C 35187.3 hPa Calm     88 % 0 mm 0.0 W/m2 CLR
01:31 -17.2 °C -18.2 °C 35187.3 hPa Calm     88 % 0 mm 0.0 W/m2 CLR
01:36 -17.4 °C -18.4 °C 35187.3 hPa Calm     89 % 0 mm 0.0 W/m2 CLR
01:37 -17.4 °C -18.4 °C 35187.3 hPa Calm     88 % 0 mm 0.0 W/m2 CLR
01:42 -17.4 °C -18.7 °C 35187.3 hPa WNW 17.9 km/h 17.9 km/h 85 % 0 mm 0.0 W/m2 CLR
01:43 -17.4 °C -18.8 °C 35187.3 hPa West 11.9 km/h 11.9 km/h 84 % 0 mm 0.0 W/m2 CLR
01:44 -17.4 °C -18.9 °C 35187.3 hPa West 6 km/h 6 km/h 83 % 0 mm 0.0 W/m2 CLR
01:49 -17.4 °C -19.3 °C 35187.3 hPa Calm     78 % 0 mm 0.0 W/m2 CLR
01:52 -17.4 °C -19.3 °C 35187.3 hPa Calm     78 % 0 mm 0.0 W/m2 CLR
01:54 -17.8 °C -19.5 °C 35187.3 hPa Calm     80 % 0 mm 0.0 W/m2 CLR
01:59 -17.8 °C -19.4 °C 35187.3 hPa Calm     81 % 0 mm 0.0 W/m2 CLR
02:02 -17.8 °C -19.3 °C 35187.3 hPa Calm     82 % 0 mm 0.0 W/m2 CLR
02:03 -17.8 °C -19.3 °C 35187.3 hPa Calm     82 % 0 mm 0.0 W/m2 CLR
02:07 -17.8 °C -19.2 °C 35187.3 hPa Calm     83 % 0 mm 0.0 W/m2 CLR
02:10 -17.8 °C -19.1 °C 35187.3 hPa Calm     84 % 0 mm 0.0 W/m2 CLR
02:13 -17.8 °C -19 °C 35187.3 hPa Calm     85 % 0 mm 0.0 W/m2 CLR
02:18 -18.1 °C -19.6 °C 35187.3 hPa Calm     82 % 0 mm 0.0 W/m2 CLR
02:23 -18.1 °C -19.6 °C 35187.3 hPa Calm     82 % 0 mm 0.0 W/m2 CLR
02:24 -18.1 °C -19.6 °C 35187.3 hPa Calm     82 % 0 mm 0.0 W/m2 CLR
02:29 -18.1 °C -19.5 °C 35173.8 hPa Calm     83 % 0 mm 0.0 W/m2 CLR
02:34 -18.1 °C -19.5 °C 35173.8 hPa Calm     83 % 0 mm 0.0 W/m2 CLR
02:39 -18.1 °C -19.3 °C 35173.8 hPa Calm     85 % 0 mm 0.0 W/m2 CLR
02:41 -18.1 °C -19.3 °C 35173.8 hPa Calm     85 % 0 mm 0.0 W/m2 CLR
02:45 -18.1 °C -19.2 °C 35173.8 hPa Calm     86 % 0 mm 0.0 W/m2 CLR
02:46 -18.1 °C -19.2 °C 35173.8 hPa Calm     86 % 0 mm 0.0 W/m2 CLR
02:51 -18.1 °C -19.1 °C 35173.8 hPa Calm     87 % 0 mm 0.0 W/m2 CLR
02:52 -18.1 °C -19.1 °C 35173.8 hPa Calm     87 % 0 mm 0.0 W/m2 CLR
02:57 -17.8 °C -18.8 °C 35173.8 hPa Calm     87 % 0 mm 0.0 W/m2 CLR
02:58 -17.8 °C -18.9 °C 35173.8 hPa Calm     86 % 0 mm 0.0 W/m2 CLR
03:01 -18.1 °C -19.3 °C 35173.8 hPa Calm     85 % 0 mm 0.0 W/m2 CLR
03:04 -18.1 °C -19.3 °C 35173.8 hPa Calm     85 % 0 mm 0.0 W/m2 CLR
03:09 -18.1 °C -19.3 °C 35173.8 hPa Calm     85 % 0 mm 0.0 W/m2 CLR
03:10 -18.1 °C -19.3 °C 35173.8 hPa Calm     85 % 0 mm 0.0 W/m2 CLR
03:15 -18.1 °C -19.2 °C 35173.8 hPa Calm     86 % 0 mm 0.0 W/m2 CLR
03:16 -18.1 °C -19.2 °C 35173.8 hPa Calm     86 % 0 mm 0.0 W/m2 CLR
03:18 -18.1 °C -19.1 °C 35173.8 hPa Calm     87 % 0 mm 0.0 W/m2 CLR
03:21 -18.1 °C -19.1 °C 35173.8 hPa Calm     87 % 0 mm 0.0 W/m2 CLR
03:23 -18.1 °C -19.1 °C 35173.8 hPa Calm     87 % 0 mm 0.0 W/m2 CLR
03:26 -18.1 °C -19.1 °C 35173.8 hPa Calm     87 % 0 mm 0.0 W/m2 CLR
03:31 -18.1 °C -19.1 °C 35173.8 hPa Calm     87 % 0 mm 0.0 W/m2 CLR
03:34 -18.1 °C -19.1 °C 35173.8 hPa Calm     88 % 0 mm 0.0 W/m2 CLR
03:36 -18.1 °C -19.1 °C 35173.8 hPa Calm     88 % 0 mm 0.0 W/m2 CLR
03:41 -18.1 °C -19.1 °C 35163.6 hPa Calm     88 % 0 mm 0.0 W/m2 CLR
03:43 -18.1 °C -19.1 °C 35163.6 hPa Calm     88 % 0 mm 0.0 W/m2 CLR
03:48 -18.1 °C -19.1 °C 35163.6 hPa Calm     87 % 0 mm 0.0 W/m2 CLR
03:49 -18.1 °C -19.1 °C 35163.6 hPa Calm     87 % 0 mm 0.0 W/m2 CLR
03:50 -18.1 °C -19.1 °C 35163.6 hPa Calm     87 % 0 mm 0.0 W/m2 CLR
03:55 -18.1 °C -19.1 °C 35163.6 hPa Calm     88 % 0 mm 0.0 W/m2 CLR
04:00 -18.1 °C -19 °C 35163.6 hPa WNW 11.9 km/h 11.9 km/h 89 % 0 mm 0.0 W/m2 CLR
04:01 -18.1 °C -19 °C 35163.6 hPa WNW 17.9 km/h 17.9 km/h 89 % 0 mm 0.0 W/m2 CLR
04:06 -18.1 °C -18.9 °C 35163.6 hPa West 11.9 km/h 11.9 km/h 90 % 0 mm 0.0 W/m2 CLR
04:11 -18.1 °C -19.1 °C 35163.6 hPa West 9 km/h 9 km/h 87 % 0 mm 0.0 W/m2 CLR
04:12 -18.1 °C -19.1 °C 35163.6 hPa Calm     87 % 0 mm 0.0 W/m2 CLR
04:17 -18.1 °C -19.4 °C 35163.6 hPa Calm     84 % 0 mm 0.0 W/m2 CLR
04:19 -18.1 °C -19.5 °C 35163.6 hPa Calm     83 % 0 mm 0.0 W/m2 CLR
04:22 -18.1 °C -19.4 °C 35163.6 hPa Calm     84 % 0 mm 0.0 W/m2 CLR
04:25 -18.4 °C -19.6 °C 35163.6 hPa Calm     85 % 0 mm 0.0 W/m2 CLR
04:28 -18.4 °C -19.6 °C 35163.6 hPa Calm     86 % 0 mm 0.0 W/m2 CLR
04:31 -18.4 °C -19.6 °C 35163.6 hPa Calm     86 % 0 mm 0.0 W/m2 CLR
04:34 -18.4 °C -19.6 °C 35150.1 hPa Calm     85 % 0 mm 0.0 W/m2 CLR
04:36 -18.4 °C -19.6 °C 35150.1 hPa Calm     85 % 0 mm 0.0 W/m2 CLR
04:41 -18.4 °C -19.6 °C 35150.1 hPa Calm     85 % 0 mm 0.0 W/m2 CLR
04:43 -18.4 °C -19.6 °C 35163.6 hPa Calm     86 % 0 mm 0.0 W/m2 CLR
04:47 -18.4 °C -19.6 °C 35163.6 hPa Calm     86 % 0 mm 0.0 W/m2 CLR
04:52 -18.4 °C -19.6 °C 35150.1 hPa Calm     86 % 0 mm 0.0 W/m2 CLR
04:55 -18.4 °C -19.6 °C 35150.1 hPa Calm     86 % 0 mm 0.0 W/m2 CLR
04:56 -18.4 °C -19.6 °C 35150.1 hPa Calm     86 % 0 mm 0.0 W/m2 CLR
05:00 -18.1 °C -19.2 °C 35150.1 hPa Calm     86 % 0 mm 0.0 W/m2 CLR
05:01 -18.1 °C -19.1 °C 35150.1 hPa Calm     87 % 0 mm 0.0 W/m2 CLR
05:06 -18.1 °C -19.2 °C 35150.1 hPa Calm     86 % 0 mm 0.0 W/m2 CLR
05:11 -18.1 °C -19.2 °C 35139.9 hPa Calm     86 % 0 mm 0.0 W/m2 CLR
05:12 -18.1 °C -19.2 °C 35139.9 hPa Calm     86 % 0 mm 0.0 W/m2 CLR
05:16 -18.1 °C -19.2 °C 35139.9 hPa Calm     86 % 0 mm 0.0 W/m2 CLR
05:17 -18.1 °C -19.2 °C 35139.9 hPa Calm     86 % 0 mm 0.0 W/m2 CLR
05:22 -18.1 °C -19.1 °C 35139.9 hPa Calm     87 % 0 mm 0.0 W/m2 CLR
05:27 -18.1 °C -19.2 °C 35129.8 hPa Calm     86 % 0 mm 0.0 W/m2 CLR
05:28 -18.1 °C -19.2 °C 35129.8 hPa Calm     86 % 0 mm 0.0 W/m2 CLR
05:33 -18.1 °C -19.1 °C 35129.8 hPa Calm     87 % 0 mm 0.0 W/m2 CLR
05:38 -18.1 °C -19.1 °C 35129.8 hPa Calm     88 % 0 mm 0.0 W/m2 CLR
05:40 -18.1 °C -19.1 °C 35129.8 hPa Calm     88 % 0 mm 0.0 W/m2 CLR
05:45 -18.1 °C -19.1 °C 35129.8 hPa Calm     88 % 0 mm 0.0 W/m2 CLR
05:47 -18.1 °C -19.1 °C 35129.8 hPa Calm     88 % 0 mm 0.0 W/m2 CLR
05:52 -18.4 °C -19.3 °C 35129.8 hPa Calm     88 % 0 mm 0.0 W/m2 CLR
05:57 -18.1 °C -19.1 °C 35129.8 hPa Calm     88 % 0 mm 0.0 W/m2 CLR
06:02 -18.1 °C -19.1 °C 35129.8 hPa Calm     88 % 0 mm 0.0 W/m2 CLR
06:06 -18.1 °C -19.1 °C 35129.8 hPa WNW 15 km/h 15 km/h 88 % 0 mm 0.0 W/m2 CLR
06:08 -18.1 °C -19 °C 35129.8 hPa West 20.9 km/h 20.9 km/h 89 % 0 mm 0.0 W/m2 CLR
06:12 -17.8 °C -18.7 °C 35129.8 hPa WNW 11.9 km/h 11.9 km/h 89 % 0 mm 0.0 W/m2 CLR
06:16 -17.8 °C -18.9 °C 35129.8 hPa WNW 9 km/h 9 km/h 86 % 0 mm 0.0 W/m2 CLR
06:21 -18.1 °C -19.5 °C 35129.8 hPa Calm     83 % 0 mm 0.0 W/m2 CLR
06:23 -18.1 °C -19.7 °C 35129.8 hPa Calm     81 % 0 mm 0.0 W/m2 CLR
06:28 -18.1 °C -19.7 °C 35129.8 hPa Calm     81 % 0 mm 0.0 W/m2 CLR
06:30 -18.1 °C -19.6 °C 35129.8 hPa Calm     82 % 0 mm 0.0 W/m2 CLR
06:34 -18.1 °C -19.4 °C 35129.8 hPa Calm     84 % 0 mm 0.0 W/m2 CLR
06:38 -18.4 °C -19.6 °C 35129.8 hPa Calm     85 % 0 mm 0.0 W/m2 CLR
06:39 -18.1 °C -19.3 °C 35129.8 hPa Calm     85 % 0 mm 0.0 W/m2 CLR
06:44 -18.1 °C -19.2 °C 35129.8 hPa Calm     86 % 0 mm 0.0 W/m2 CLR
06:45 -18.1 °C -19.2 °C 35129.8 hPa Calm     86 % 0 mm 0.0 W/m2 CLR
06:50 -18.4 °C -19.4 °C 35129.8 hPa Calm     87 % 0 mm 0.0 W/m2 CLR
06:51 -18.1 °C -19.1 °C 35129.8 hPa Calm     87 % 0 mm 0.0 W/m2 CLR
06:56 -18.1 °C -19.2 °C 35129.8 hPa Calm     86 % 0 mm 0.0 W/m2 CLR
07:00 -18.1 °C -19.2 °C 35129.8 hPa Calm     86 % 0 mm 0.0 W/m2 CLR
07:02 -18.1 °C -19.2 °C 35129.8 hPa Calm     86 % 0 mm 0.0 W/m2 CLR
07:08 -18.1 °C -19.3 °C 35129.8 hPa Calm     85 % 0 mm 0.0 W/m2 CLR
07:13 -18.4 °C -19.6 °C 35139.9 hPa Calm     85 % 0 mm 0.0 W/m2 CLR
07:14 -18.1 °C -19.3 °C 35139.9 hPa Calm     85 % 0 mm 0.0 W/m2 CLR
07:15 -18.4 °C -19.6 °C 35129.8 hPa Calm     85 % 0 mm 0.0 W/m2 CLR
07:20 -18.1 °C -19.2 °C 35139.9 hPa Calm     86 % 0 mm 0.0 W/m2 CLR
07:21 -18.1 °C -19.2 °C 35139.9 hPa Calm     86 % 0 mm 0.0 W/m2 CLR
07:22 -18.1 °C -19.1 °C 35129.8 hPa Calm     87 % 0 mm 0.0 W/m2 CLR
07:26 -18.1 °C -19.1 °C 35129.8 hPa Calm     88 % 0 mm 0.0 W/m2 CLR
07:27 -18.1 °C -19.1 °C 35139.9 hPa Calm     88 % 0 mm 0.0 W/m2 CLR
07:31 -18.1 °C -19.1 °C 35139.9 hPa Calm     88 % 0 mm 0.0 W/m2 CLR
07:35 -18.1 °C -19.1 °C 35139.9 hPa Calm     88 % 0 mm 0.0 W/m2 CLR
07:36 -18.1 °C -19.1 °C 35139.9 hPa Calm     88 % 0 mm 0.0 W/m2 CLR
07:40 -18.1 °C -19.1 °C 35139.9 hPa Calm     87 % 0 mm 0.0 W/m2 CLR
07:41 -18.1 °C -19.1 °C 35139.9 hPa Calm     87 % 0 mm 0.0 W/m2 CLR
07:46 -18.1 °C -19.1 °C 35139.9 hPa Calm     88 % 0 mm 0.0 W/m2 CLR
07:48 -18.1 °C -19.1 °C 35139.9 hPa Calm     88 % 0 mm 0.0 W/m2 CLR
07:51 -18.1 °C -19 °C 35139.9 hPa Calm     89 % 0 mm 0.0 W/m2 CLR
07:56 -18.1 °C -19 °C 35139.9 hPa Calm     89 % 0 mm 0.0 W/m2 CLR
07:57 -18.1 °C -19 °C 35139.9 hPa Calm     89 % 0 mm 0.0 W/m2 CLR
08:02 -18.4 °C -19.3 °C 35139.9 hPa Calm     88 % 0 mm 0.0 W/m2 CLR
08:07 -18.4 °C -19.3 °C 35139.9 hPa Calm     89 % 0 mm 0.0 W/m2 CLR
08:08 -18.4 °C -19.3 °C 35139.9 hPa Calm     89 % 0 mm 0.0 W/m2 CLR
08:10 -18.4 °C -19.2 °C 35139.9 hPa Calm     90 % 0 mm 0.0 W/m2 CLR
08:13 -18.4 °C -19.2 °C 35139.9 hPa Calm     90 % 0 mm 0.0 W/m2 OVC
08:19 -18.4 °C -19.3 °C 35139.9 hPa Calm     89 % 0 mm 5.0 W/m2 OVC
08:24 -18.4 °C -19.3 °C 35139.9 hPa Calm     89 % 0 mm 7.0 W/m2 BKN
08:26 -18.4 °C -19.3 °C 35139.9 hPa Calm     89 % 0 mm 9.0 W/m2 BKN
08:30 -18.4 °C -19.3 °C 35139.9 hPa Calm     89 % 0 mm 11.0 W/m2 BKN
08:35 -18.4 °C -19.2 °C 35139.9 hPa Calm     90 % 0 mm 14.0 W/m2 BKN
08:40 -18.4 °C -19.3 °C 35150.1 hPa Calm     89 % 0 mm 21.0 W/m2 BKN
08:41 -18.4 °C -19.3 °C 35150.1 hPa Calm     89 % 0 mm 21.0 W/m2 BKN
08:42 -18.4 °C -19.3 °C 35150.1 hPa Calm     88 % 0 mm 21.0 W/m2 BKN
08:47 -18.4 °C -19.4 °C 35150.1 hPa Calm     87 % 0 mm 26.0 W/m2 BKN
08:49 -18.4 °C -19.4 °C 35150.1 hPa Calm     87 % 0 mm 26.0 W/m2 BKN
08:54 -18.4 °C -19.3 °C 35150.1 hPa Calm     88 % 0 mm 35.0 W/m2 BKN
08:55 -18.4 °C -19.3 °C 35150.1 hPa Calm     88 % 0 mm 37.0 W/m2 BKN
08:58 -18.4 °C -19.3 °C 35150.1 hPa Calm     88 % 0 mm 40.0 W/m2 BKN
09:02 -18.1 °C -19.2 °C 35150.1 hPa Calm     86 % 0 mm 54.0 W/m2 SCT
09:03 -18.1 °C -19.3 °C 35150.1 hPa Calm     85 % 0 mm 56.0 W/m2 SCT
09:07 -18.1 °C -19.5 °C 35150.1 hPa Calm     83 % 0 mm 63.0 W/m2 SCT
09:17 -17.8 °C -19.2 °C 35139.9 hPa Calm     83 % 0 mm 86.0 W/m2 CLR
09:20 -17.8 °C -19.2 °C 35150.1 hPa Calm     83 % 0 mm 81.0 W/m2 FEW
09:25 -17.8 °C -19.2 °C 35150.1 hPa Calm     83 % 0 mm 118.0 W/m2 CLR
09:26 -17.8 °C -19.2 °C 35150.1 hPa Calm     83 % 0 mm 116.0 W/m2 CLR
09:31 -17.4 °C -18.8 °C 35150.1 hPa Calm     84 % 0 mm 130.0 W/m2 CLR
09:32 -17.4 °C -18.9 °C 35150.1 hPa Calm     83 % 0 mm 130.0 W/m2 CLR
09:38 -17.4 °C -19 °C 35150.1 hPa Calm     82 % 0 mm 169.0 W/m2 CLR
09:43 -16.8 °C -18.4 °C 35150.1 hPa Calm     82 % 0 mm 172.0 W/m2 CLR
09:44 -16.8 °C -18.4 °C 35150.1 hPa Calm     82 % 0 mm 171.0 W/m2 CLR
09:47 -16.6 °C -18.2 °C 35150.1 hPa Calm     81 % 0 mm 174.0 W/m2 CLR
09:49 -16.6 °C -18.3 °C 35150.1 hPa Calm     80 % 0 mm 181.0 W/m2 CLR
09:54 -16.2 °C -18.1 °C 35150.1 hPa Calm     79 % 0 mm 186.0 W/m2 CLR
09:55 -16.2 °C -18.1 °C 35150.1 hPa Calm     79 % 0 mm 193.0 W/m2 CLR
10:00 -15.9 °C -17.7 °C 35150.1 hPa Calm     79 % 0 mm 142.0 W/m2 CLR
10:01 -15.9 °C -17.7 °C 35150.1 hPa Calm     79 % 0 mm 149.0 W/m2 CLR
10:04 -15.6 °C -17.6 °C 35150.1 hPa Calm     78 % 0 mm 181.0 W/m2 CLR
10:09 -15.6 °C -17.9 °C 35150.1 hPa NW 15 km/h 15 km/h 74 % 0 mm 202.0 W/m2 CLR
10:14 -15.3 °C -18.3 °C 35150.1 hPa NW 32.8 km/h 32.8 km/h 68 % 0 mm 204.0 W/m2 CLR
10:15 -15.3 °C -18.3 °C 35150.1 hPa NW 32.8 km/h 32.8 km/h 68 % 0 mm 204.0 W/m2 CLR
10:19 -14.7 °C -18.1 °C 35163.6 hPa NW 29.8 km/h 29.8 km/h 65 % 0 mm 214.0 W/m2 CLR
10:22 -14.1 °C -17.4 °C 35163.6 hPa NNW 23.8 km/h 23.8 km/h 65 % 0 mm 246.0 W/m2 CLR
10:27 -12.8 °C -16.6 °C 35163.6 hPa WNW 23.8 km/h 23.8 km/h 63 % 0 mm 197.0 W/m2 CLR
10:29 -12.6 °C -16.3 °C 35163.6 hPa NW 23.8 km/h 23.8 km/h 63 % 0 mm 213.0 W/m2 CLR
10:34 -12.2 °C -16.1 °C 35163.6 hPa WNW 23.3 km/h 23.3 km/h 62 % 0 mm 237.0 W/m2 CLR
10:35 -12.2 °C -16.3 °C 35163.6 hPa WNW 31.1 km/h 31.1 km/h 60 % 0 mm 237.0 W/m2 CLR
10:44 -11.9 °C -15.9 °C 35163.6 hPa NW 29.8 km/h 29.8 km/h 61 % 0 mm 221.0 W/m2 CLR
10:49 -11.9 °C -15.9 °C 35163.6 hPa NW 38.8 km/h 38.8 km/h 61 % 0 mm 232.0 W/m2 CLR
10:50 -11.9 °C -15.9 °C 35163.6 hPa NW 38.8 km/h 38.8 km/h 61 % 0 mm 232.0 W/m2 CLR
10:55 -11.9 °C -15.8 °C 35163.6 hPa NW 47.6 km/h 47.6 km/h 62 % 0 mm 271.0 W/m2 CLR
10:56 -11.9 °C -15.8 °C 35163.6 hPa NNW 38.8 km/h 38.8 km/h 62 % 0 mm 299.0 W/m2 CLR
10:57 -11.6 °C -15.5 °C 35163.6 hPa NW 50.7 km/h 50.7 km/h 62 % 0 mm 308.0 W/m2 CLR
11:02 -11.6 °C -15.5 °C 35163.6 hPa NNW 50.7 km/h 50.7 km/h 62 % 0 mm 253.0 W/m2 CLR
11:06 -11.6 °C -15.5 °C 35173.8 hPa NNW 29.8 km/h 29.8 km/h 62 % 0 mm 223.0 W/m2 CLR
11:08 -11.6 °C -15.5 °C 35173.8 hPa WNW 29.8 km/h 29.8 km/h 62 % 0 mm 232.0 W/m2 CLR
11:13 -11.6 °C -15.6 °C 35173.8 hPa NNW 50.7 km/h 50.7 km/h 61 % 0 mm 283.0 W/m2 CLR
11:14 -11.6 °C -15.6 °C 35173.8 hPa NNW 41.7 km/h 41.7 km/h 61 % 0 mm 229.0 W/m2 CLR
11:19 -11.6 °C -15.8 °C 35173.8 hPa NW 29.8 km/h 29.8 km/h 60 % 0 mm 287.0 W/m2 CLR
11:20 -11.6 °C -15.8 °C 35163.6 hPa NW 38.8 km/h 38.8 km/h 60 % 0 mm 287.0 W/m2 CLR
11:25 -11.3 °C -15.4 °C 35163.6 hPa NNW 26.9 km/h 26.9 km/h 60 % 0 mm 327.0 W/m2 CLR
11:26 -11.3 °C -15.6 °C 35163.6 hPa NNW 26.9 km/h 26.9 km/h 59 % 0 mm 327.0 W/m2 CLR
11:31 -11.3 °C -15.6 °C 35163.6 hPa NW 38.8 km/h 38.8 km/h 59 % 0 mm 306.0 W/m2 CLR
11:36 -11.3 °C -15.6 °C 35163.6 hPa NW 29.8 km/h 29.8 km/h 59 % 0 mm 369.0 W/m2 CLR
11:39 -11.3 °C -15.7 °C 35163.6 hPa NNW 29.8 km/h 29.8 km/h 58 % 0 mm 360.0 W/m2 CLR
11:44 -11 °C -15.6 °C 35163.6 hPa NNW 35.7 km/h 35.7 km/h 57 % 0 mm 408.0 W/m2 CLR
11:45 -11 °C -15.4 °C 35163.6 hPa NNW 26.9 km/h 26.9 km/h 58 % 0 mm 417.0 W/m2 CLR
11:50 -11 °C -15.4 °C 35163.6 hPa NNW 50.7 km/h 50.7 km/h 58 % 0 mm 348.0 W/m2 CLR
11:51 -11 °C -15.3 °C 35163.6 hPa NW 50.7 km/h 50.7 km/h 59 % 0 mm 346.0 W/m2 CLR
11:56 -11 °C -15.3 °C 35150.1 hPa NW 56.6 km/h 56.6 km/h 59 % 0 mm 339.0 W/m2 CLR
11:59 -11 °C -15.2 °C 35150.1 hPa NNW 47.6 km/h 47.6 km/h 60 % 0 mm 302.0 W/m2 CLR
12:04 -11 °C -15.2 °C 35150.1 hPa North 41.7 km/h 41.7 km/h 60 % 0 mm 276.0 W/m2 CLR
12:08 -11 °C -15.1 °C 35150.1 hPa NW 44.7 km/h 44.7 km/h 61 % 0 mm 350.0 W/m2 CLR
12:09 -11 °C -15.1 °C 35150.1 hPa WNW 32.8 km/h 32.8 km/h 61 % 0 mm 399.0 W/m2 CLR
12:14 -10.7 °C -14.9 °C 35150.1 hPa NNW 44.1 km/h 44.1 km/h 60 % 0 mm 394.0 W/m2 CLR
12:15 -10.7 °C -14.9 °C 35150.1 hPa NNW 38.8 km/h 38.8 km/h 60 % 0 mm 394.0 W/m2 CLR
12:20 -10.7 °C -14.9 °C 35139.9 hPa NNW 41.7 km/h 41.7 km/h 60 % 0 mm 380.0 W/m2 CLR
12:26 -10.7 °C -15.1 °C 35139.9 hPa NNW 44.7 km/h 44.7 km/h 59 % 0 mm 404.0 W/m2 CLR
12:27 -10.4 °C -14.9 °C 35139.9 hPa NNW 35.7 km/h 35.7 km/h 58 % 0 mm 411.0 W/m2 CLR
12:32 -10.4 °C -14.7 °C 35139.9 hPa NW 50.7 km/h 50.7 km/h 59 % 0 mm 325.0 W/m2 CLR
12:33 -10.4 °C -14.7 °C 35139.9 hPa NNW 50.7 km/h 50.7 km/h 59 % 0 mm 325.0 W/m2 CLR
12:38 -10.4 °C -14.7 °C 35139.9 hPa NW 56.6 km/h 56.6 km/h 59 % 0 mm 302.0 W/m2 CLR
12:40 -10.7 °C -14.9 °C 35139.9 hPa NW 50.7 km/h 50.7 km/h 60 % 0 mm 318.0 W/m2 CLR
12:41 -10.7 °C -14.9 °C 35139.9 hPa WNW 33.6 km/h 33.6 km/h 60 % 0 mm 290.0 W/m2 CLR
12:45 -10.7 °C -14.9 °C 35139.9 hPa NW 29.8 km/h 29.8 km/h 60 % 0 mm 285.0 W/m2 CLR
12:47 -10.7 °C -14.9 °C 35139.9 hPa NW 29.8 km/h 29.8 km/h 60 % 0 mm 287.0 W/m2 CLR
12:52 -10.7 °C -14.9 °C 35129.8 hPa NW 38.8 km/h 38.8 km/h 60 % 0 mm 311.0 W/m2 CLR
12:56 -10.7 °C -14.8 °C 35129.8 hPa NW 44.7 km/h 44.7 km/h 61 % 0 mm 269.0 W/m2 CLR
12:57 -10.7 °C -14.8 °C 35129.8 hPa WNW 41.7 km/h 41.7 km/h 61 % 0 mm 260.0 W/m2 CLR
13:02 -10.7 °C -14.8 °C 35129.8 hPa NNW 29.8 km/h 29.8 km/h 61 % 0 mm 255.0 W/m2 CLR
13:04 -10.7 °C -14.8 °C 35129.8 hPa North 32.8 km/h 32.8 km/h 61 % 0 mm 248.0 W/m2 CLR
13:07 -10.7 °C -14.8 °C 35129.8 hPa NNW 38.8 km/h 38.8 km/h 61 % 0 mm 237.0 W/m2 CLR
13:12 -10.7 °C -14.6 °C 35129.8 hPa NW 29.8 km/h 29.8 km/h 62 % 0 mm 221.0 W/m2 CLR
13:16 -11 °C -14.9 °C 35129.8 hPa NNW 41.7 km/h 41.7 km/h 62 % 0 mm 204.0 W/m2 CLR
13:18 -11 °C -14.9 °C 35129.8 hPa WNW 29.8 km/h 29.8 km/h 62 % 0 mm 200.0 W/m2 CLR
13:23 -11 °C -14.9 °C 35129.8 hPa NNW 23.8 km/h 23.8 km/h 62 % 0 mm 232.0 W/m2 CLR
13:24 -11 °C -14.9 °C 35129.8 hPa NNW 31.1 km/h 31.1 km/h 62 % 0 mm 220.0 W/m2 CLR
13:28 -10.7 °C -14.6 °C 35129.8 hPa North 38.8 km/h 38.8 km/h 62 % 0 mm 225.0 W/m2 CLR
13:31 -10.7 °C -14.5 °C 35116.2 hPa NNW 29.8 km/h 29.8 km/h 63 % 0 mm 246.0 W/m2 CLR
13:33 -10.7 °C -14.5 °C 35129.8 hPa NW 25.9 km/h 25.9 km/h 63 % 0 mm 250.0 W/m2 CLR
13:39 -10.7 °C -14.6 °C 35116.2 hPa NNW 32.8 km/h 32.8 km/h 62 % 0 mm 374.0 W/m2 CLR
13:40 -10.7 °C -14.6 °C 35116.2 hPa NNW 32.8 km/h 32.8 km/h 62 % 0 mm 376.0 W/m2 CLR
13:45 -10.7 °C -14.6 °C 35116.2 hPa NNW 29.8 km/h 29.8 km/h 62 % 0 mm 376.0 W/m2 CLR
13:51 -10.4 °C -14.5 °C 35116.2 hPa North 31.1 km/h 31.1 km/h 61 % 0 mm 373.0 W/m2 CLR
13:56 -10.4 °C -14.5 °C 35106 hPa North 29.8 km/h 29.8 km/h 61 % 0 mm 359.0 W/m2 CLR
13:57 -10.7 °C -14.8 °C 35106 hPa North 33.6 km/h 33.6 km/h 61 % 0 mm 385.0 W/m2 CLR
14:02 -10.4 °C -14.6 °C 35106 hPa North 28.5 km/h 28.5 km/h 60 % 0 mm 466.0 W/m2 CLR
14:05 -10.4 °C -14.5 °C 35106 hPa North 35.7 km/h 35.7 km/h 61 % 0 mm 480.0 W/m2 CLR
14:10 -10.4 °C -14.6 °C 35106 hPa NNW 29.8 km/h 29.8 km/h 60 % 0 mm 364.0 W/m2 CLR
14:13 -10.4 °C -14.6 °C 35106 hPa NW 29.8 km/h 29.8 km/h 60 % 0 mm 454.0 W/m2 CLR
14:16 -10.4 °C -14.6 °C 35106 hPa NW 26.9 km/h 26.9 km/h 60 % 0 mm 439.0 W/m2 CLR
14:21 -10.4 °C -14.7 °C 35095.9 hPa WNW 31.1 km/h 31.1 km/h 59 % 0 mm 295.0 W/m2 CLR
14:23 -10.4 °C -14.6 °C 35095.9 hPa NW 29.8 km/h 29.8 km/h 60 % 0 mm 339.0 W/m2 CLR
14:28 -10.4 °C -14.7 °C 35095.9 hPa NW 32.8 km/h 32.8 km/h 59 % 0 mm 376.0 W/m2 CLR
14:29 -10.4 °C -14.6 °C 35095.9 hPa NW 33.6 km/h 33.6 km/h 60 % 0 mm 376.0 W/m2 CLR
14:33 -10.4 °C -14.6 °C 35095.9 hPa NNW 35.7 km/h 35.7 km/h 60 % 0 mm 345.0 W/m2 CLR
14:35 -10.4 °C -14.7 °C 35095.9 hPa NW 35.7 km/h 35.7 km/h 59 % 0 mm 248.0 W/m2 CLR
14:40 -10.4 °C -14.6 °C 35095.9 hPa NNW 36.2 km/h 36.2 km/h 60 % 0 mm 380.0 W/m2 CLR
14:41 -10.4 °C -14.6 °C 35095.9 hPa WNW 35.7 km/h 35.7 km/h 60 % 0 mm 378.0 W/m2 CLR
14:46 -10.4 °C -14.7 °C 35095.9 hPa NW 29.8 km/h 29.8 km/h 59 % 0 mm 359.0 W/m2 CLR
14:48 -10.4 °C -14.7 °C 35095.9 hPa NW 29.8 km/h 29.8 km/h 59 % 0 mm 334.0 W/m2 CLR
14:49 -10.4 °C -14.7 °C 35095.9 hPa North 33.6 km/h 33.6 km/h 59 % 0 mm 334.0 W/m2 CLR
14:54 -10.4 °C -14.7 °C 35082.3 hPa North 23.8 km/h 23.8 km/h 59 % 0 mm 258.0 W/m2 CLR
14:55 -10.4 °C -14.7 °C 35082.3 hPa NW 25.9 km/h 25.9 km/h 59 % 0 mm 258.0 W/m2 CLR
15:00 -10.4 °C -14.7 °C 35082.3 hPa NW 20.9 km/h 20.9 km/h 59 % 0 mm 197.0 W/m2 CLR
15:01 -10.4 °C -14.7 °C 35082.3 hPa NNW 23.8 km/h 23.8 km/h 59 % 0 mm 141.0 W/m2 CLR
15:04 -10.4 °C -14.7 °C 35082.3 hPa NW 29.8 km/h 29.8 km/h 59 % 0 mm 118.0 W/m2 CLR
15:09 -10.7 °C -14.9 °C 35082.3 hPa NW 29.8 km/h 29.8 km/h 60 % 0 mm 239.0 W/m2 CLR
15:10 -10.7 °C -14.9 °C 35082.3 hPa NW 29.8 km/h 29.8 km/h 60 % 0 mm 265.0 W/m2 CLR
15:15 -10.4 °C -14.6 °C 35082.3 hPa WNW 44.7 km/h 44.7 km/h 60 % 0 mm 294.0 W/m2 CLR
15:21 -10.4 °C -14.6 °C 35082.3 hPa NW 38.8 km/h 38.8 km/h 60 % 0 mm 281.0 W/m2 CLR
15:23 -10.4 °C -14.6 °C 35082.3 hPa NW 29.8 km/h 29.8 km/h 60 % 0 mm 279.0 W/m2 CLR
15:26 -10.4 °C -14.6 °C 35082.3 hPa NW 38.8 km/h 38.8 km/h 60 % 0 mm 269.0 W/m2 CLR
15:30 -10.4 °C -14.6 °C 35082.3 hPa NW 32.8 km/h 32.8 km/h 60 % 0 mm 264.0 W/m2 CLR
15:31 -10.4 °C -14.6 °C 35082.3 hPa WNW 29.8 km/h 29.8 km/h 60 % 0 mm 264.0 W/m2 CLR
15:36 -10.7 °C -14.9 °C 35082.3 hPa WNW 38.8 km/h 38.8 km/h 60 % 0 mm 192.0 W/m2 CLR
15:38 -10.7 °C -14.9 °C 35082.3 hPa NW 29.8 km/h 29.8 km/h 60 % 0 mm 137.0 W/m2 CLR
15:39 -10.7 °C -14.8 °C 35082.3 hPa WNW 29.8 km/h 29.8 km/h 61 % 0 mm 127.0 W/m2 CLR
15:43 -10.7 °C -14.8 °C 35082.3 hPa NW 29.8 km/h 29.8 km/h 61 % 0 mm 221.0 W/m2 CLR
15:47 -10.7 °C -14.8 °C 35082.3 hPa NNW 36.2 km/h 36.2 km/h 61 % 0 mm 123.0 W/m2 CLR
15:49 -10.7 °C -14.8 °C 35082.3 hPa NNW 35.7 km/h 35.7 km/h 61 % 0 mm 158.0 W/m2 CLR
15:54 -10.7 °C -14.6 °C 35082.3 hPa NNW 33.6 km/h 33.6 km/h 62 % 0 mm 200.0 W/m2 CLR
15:57 -10.7 °C -14.6 °C 35082.3 hPa NNW 29.8 km/h 29.8 km/h 62 % 0 mm 192.0 W/m2 CLR
16:00 -11 °C -14.9 °C 35082.3 hPa NNW 28.5 km/h 28.5 km/h 62 % 0 mm 197.0 W/m2 CLR
16:05 -11 °C -14.9 °C 35082.3 hPa NW 29.8 km/h 29.8 km/h 62 % 0 mm 178.0 W/m2 CLR
16:10 -11 °C -14.9 °C 35082.3 hPa NW 28.5 km/h 28.5 km/h 62 % 0 mm 163.0 W/m2 CLR
16:11 -11 °C -14.9 °C 35082.3 hPa NW 29.8 km/h 29.8 km/h 62 % 0 mm 155.0 W/m2 CLR
16:18 -11 °C -14.9 °C 35082.3 hPa NNW 38.8 km/h 38.8 km/h 62 % 0 mm 125.0 W/m2 CLR
16:23 -11 °C -14.8 °C 35095.9 hPa North 41.7 km/h 41.7 km/h 63 % 0 mm 105.0 W/m2 CLR
16:27 -11.3 °C -15.1 °C 35082.3 hPa NW 38.8 km/h 38.8 km/h 63 % 0 mm 60.0 W/m2 CLR
16:29 -11.3 °C -15.1 °C 35082.3 hPa NW 35.7 km/h 35.7 km/h 63 % 0 mm 58.0 W/m2 CLR
16:34 -11.3 °C -14.9 °C 35082.3 hPa NW 35.7 km/h 35.7 km/h 64 % 0 mm 77.0 W/m2 FEW
16:39 -11.3 °C -14.8 °C 35082.3 hPa NW 29.8 km/h 29.8 km/h 65 % 0 mm 100.0 W/m2 CLR
16:41 -11.3 °C -14.9 °C 35082.3 hPa WNW 26.9 km/h 26.9 km/h 64 % 0 mm 83.0 W/m2 FEW
16:46 -11.3 °C -14.9 °C 35082.3 hPa NW 23.8 km/h 23.8 km/h 64 % 0 mm 51.0 W/m2 SCT
16:47 -11.3 °C -14.9 °C 35082.3 hPa NNW 23.8 km/h 23.8 km/h 64 % 0 mm 44.0 W/m2 SCT
16:52 -11.3 °C -14.8 °C 35082.3 hPa NW 23.8 km/h 23.8 km/h 65 % 0 mm 60.0 W/m2 SCT
16:57 -11.6 °C -15.1 °C 35082.3 hPa NW 18.2 km/h 18.2 km/h 65 % 0 mm 56.0 W/m2 SCT
16:58 -11.6 °C -15.1 °C 35082.3 hPa NNW 20.9 km/h 20.9 km/h 65 % 0 mm 53.0 W/m2 SCT
17:02 -11.6 °C -15.1 °C 35082.3 hPa WNW 23.8 km/h 23.8 km/h 65 % 0 mm 47.0 W/m2 SCT
17:03 -11.6 °C -15.1 °C 35082.3 hPa NW 20.9 km/h 20.9 km/h 65 % 0 mm 44.0 W/m2 SCT
17:08 -11.6 °C -15.1 °C 35082.3 hPa NW 29.8 km/h 29.8 km/h 65 % 0 mm 35.0 W/m2 BKN
17:10 -11.6 °C -15.1 °C 35082.3 hPa NW 20.9 km/h 20.9 km/h 65 % 0 mm 30.0 W/m2 BKN
17:12 -11.6 °C -15.1 °C 35082.3 hPa NNW 17.9 km/h 17.9 km/h 65 % 0 mm 28.0 W/m2 BKN
17:16 -11.6 °C -15 °C 35082.3 hPa NW 26.9 km/h 26.9 km/h 66 % 0 mm 23.0 W/m2 BKN
17:20 -11.6 °C -15 °C 35095.9 hPa NNW 29.8 km/h 29.8 km/h 66 % 0 mm 19.0 W/m2 BKN
17:22 -11.6 °C -15 °C 35095.9 hPa NNW 11.9 km/h 11.9 km/h 66 % 0 mm 18.0 W/m2 BKN
17:27 -11.6 °C -14.9 °C 35095.9 hPa NW 15 km/h 15 km/h 67 % 0 mm 14.0 W/m2 BKN
17:28 -11.6 °C -14.9 °C 35095.9 hPa NW 15.6 km/h 15.6 km/h 67 % 0 mm 12.0 W/m2 BKN
17:29 -11.9 °C -15.2 °C 35095.9 hPa WNW 15 km/h 15 km/h 67 % 0 mm 12.0 W/m2 BKN
17:33 -11.9 °C -15.2 °C 35095.9 hPa NW 17.9 km/h 17.9 km/h 67 % 0 mm 9.0 W/m2 BKN
17:38 -12.2 °C -15.4 °C 35095.9 hPa NW 12.9 km/h 12.9 km/h 67 % 0 mm 5.0 W/m2 OVC
17:40 -12.2 °C -15.4 °C 35095.9 hPa WNW 17.9 km/h 17.9 km/h 67 % 0 mm 5.0 W/m2 OVC
17:45 -12.6 °C -15.8 °C 35095.9 hPa NW 12.9 km/h 12.9 km/h 67 % 0 mm 0.0 W/m2 CLR
17:46 -12.6 °C -15.7 °C 35095.9 hPa NW 15.6 km/h 15.6 km/h 68 % 0 mm 0.0 W/m2 CLR
17:47 -12.6 °C -15.7 °C 35095.9 hPa NW 15 km/h 15 km/h 68 % 0 mm 0.0 W/m2 CLR
17:51 -12.8 °C -15.9 °C 35095.9 hPa Calm     68 % 0 mm 0.0 W/m2 CLR
17:56 -13.2 °C -16.2 °C 35095.9 hPa Calm     68 % 0 mm 0.0 W/m2 CLR
17:59 -13.4 °C -16.6 °C 35095.9 hPa Calm     68 % 0 mm 0.0 W/m2 CLR
18:03 -13.8 °C -16.8 °C 35095.9 hPa Calm     68 % 0 mm 0.0 W/m2 CLR
18:05 -13.8 °C -16.8 °C 35106 hPa Calm     68 % 0 mm 0.0 W/m2 CLR
18:11 -14.1 °C -17 °C 35106 hPa Calm     69 % 0 mm 0.0 W/m2 CLR
18:13 -14.1 °C -17 °C 35106 hPa Calm     69 % 0 mm 0.0 W/m2 CLR
18:16 -14.4 °C -17.3 °C 35106 hPa Calm     69 % 0 mm 0.0 W/m2 CLR
18:19 -14.4 °C -17.3 °C 35106 hPa Calm     69 % 0 mm 0.0 W/m2 CLR
18:24 -14.7 °C -17.6 °C 35106 hPa Calm     69 % 0 mm 0.0 W/m2 CLR
18:25 -14.7 °C -17.6 °C 35106 hPa Calm     69 % 0 mm 0.0 W/m2 CLR
18:30 -14.7 °C -17.4 °C 35106 hPa Calm     71 % 0 mm 0.0 W/m2 CLR
18:31 -14.7 °C -17.4 °C 35106 hPa Calm     71 % 0 mm 0.0 W/m2 CLR
18:37 -15 °C -17.7 °C 35106 hPa Calm     71 % 0 mm 0.0 W/m2 CLR
18:42 -15 °C -17.6 °C 35106 hPa Calm     72 % 0 mm 0.0 W/m2 CLR
18:47 -15.3 °C -17.8 °C 35106 hPa Calm     73 % 0 mm 0.0 W/m2 CLR
18:48 -15.3 °C -17.8 °C 35106 hPa Calm     73 % 0 mm 0.0 W/m2 CLR
18:49 -15.3 °C -17.8 °C 35106 hPa Calm     73 % 0 mm 0.0 W/m2 CLR
18:53 -15.6 °C -18.1 °C 35106 hPa Calm     73 % 0 mm 0.0 W/m2 CLR
18:55 -15.6 °C -18.1 °C 35106 hPa Calm     73 % 0 mm 0.0 W/m2 CLR
18:58 -15.6 °C -17.9 °C 35106 hPa Calm     74 % 0 mm 0.0 W/m2 CLR
19:01 -15.6 °C -17.9 °C 35116.2 hPa Calm     74 % 0 mm 0.0 W/m2 CLR
19:04 -15.9 °C -18.3 °C 35116.2 hPa Calm     74 % 0 mm 0.0 W/m2 CLR
19:09 -15.9 °C -18.2 °C 35116.2 hPa Calm     75 % 0 mm 0.0 W/m2 CLR
19:14 -15.9 °C -18.2 °C 35116.2 hPa West 11.9 km/h 11.9 km/h 75 % 0 mm 0.0 W/m2 CLR
19:16 -15.9 °C -18.2 °C 35116.2 hPa WNW 3.1 km/h   75 % 0 mm 0.0 W/m2 CLR
19:22 -15.9 °C -18.1 °C 35116.2 hPa NW 18.2 km/h 18.2 km/h 76 % 0 mm 0.0 W/m2 CLR
19:25 -16.2 °C -18.4 °C 35116.2 hPa WNW 20.9 km/h 20.9 km/h 76 % 0 mm 0.0 W/m2 CLR
19:28 -16.2 °C -18.4 °C 35116.2 hPa NW 15 km/h 15 km/h 75 % 0 mm 0.0 W/m2 CLR
19:33 -16.2 °C -18.4 °C 35116.2 hPa WNW 20.9 km/h 20.9 km/h 75 % 0 mm 0.0 W/m2 CLR
19:38 -16.2 °C -18.6 °C 35116.2 hPa West 12.9 km/h 12.9 km/h 74 % 0 mm 0.0 W/m2 CLR
19:42 -16.6 °C -18.8 °C 35116.2 hPa Calm     74 % 0 mm 0.0 W/m2 CLR
19:44 -16.6 °C -18.8 °C 35116.2 hPa WNW 18.2 km/h 18.2 km/h 74 % 0 mm 0.0 W/m2 CLR
19:49 -16.6 °C -18.8 °C 35116.2 hPa West 20.9 km/h 20.9 km/h 75 % 0 mm 0.0 W/m2 CLR
19:54 -16.6 °C -18.8 °C 35129.8 hPa WNW 15 km/h 15 km/h 75 % 0 mm 0.0 W/m2 CLR
19:59 -16.6 °C -18.7 °C 35129.8 hPa WNW 20.9 km/h 20.9 km/h 76 % 0 mm 0.0 W/m2 CLR
20:03 -16.6 °C -18.7 °C 35116.2 hPa WNW 10.3 km/h 10.3 km/h 76 % 0 mm 0.0 W/m2 CLR
20:04 -16.6 °C -18.7 °C 35116.2 hPa WNW 20.9 km/h 20.9 km/h 76 % 0 mm 0.0 W/m2 CLR
20:09 -16.6 °C -18.6 °C 35116.2 hPa WNW 17.9 km/h 17.9 km/h 77 % 0 mm 0.0 W/m2 CLR
20:10 -16.6 °C -18.6 °C 35116.2 hPa WNW 17.9 km/h 17.9 km/h 77 % 0 mm 0.0 W/m2 CLR
20:15 -16.6 °C -18.7 °C 35129.8 hPa WNW 18.2 km/h 18.2 km/h 76 % 0 mm 0.0 W/m2 CLR
20:20 -16.6 °C -18.7 °C 35129.8 hPa WNW 26.9 km/h 26.9 km/h 76 % 0 mm 0.0 W/m2 CLR
20:25 -16.6 °C -18.7 °C 35129.8 hPa WNW 23.3 km/h 23.3 km/h 76 % 0 mm 0.0 W/m2 CLR
20:26 -16.6 °C -18.7 °C 35129.8 hPa WNW 26.9 km/h 26.9 km/h 76 % 0 mm 0.0 W/m2 CLR
20:28 -16.2 °C -18.4 °C 35129.8 hPa NW 15.6 km/h 15.6 km/h 76 % 0 mm 0.0 W/m2 CLR
20:32 -16.2 °C -18.4 °C 35129.8 hPa WNW 23.8 km/h 23.8 km/h 76 % 0 mm 0.0 W/m2 CLR
20:37 -16.6 °C -18.7 °C 35129.8 hPa WNW 20.9 km/h 20.9 km/h 76 % 0 mm 0.0 W/m2 CLR
20:38 -16.6 °C -18.7 °C 35129.8 hPa WNW 20.9 km/h 20.9 km/h 76 % 0 mm 0.0 W/m2 CLR
20:42 -16.6 °C -18.7 °C 35129.8 hPa West 20.9 km/h 20.9 km/h 76 % 0 mm 0.0 W/m2 CLR
20:45 -16.6 °C -18.7 °C 35129.8 hPa West 15.6 km/h 15.6 km/h 76 % 0 mm 0.0 W/m2 CLR
20:50 -16.6 °C -18.7 °C 35129.8 hPa West 15 km/h 15 km/h 76 % 0 mm 0.0 W/m2 CLR
20:51 -16.6 °C -18.6 °C 35129.8 hPa West 17.9 km/h 17.9 km/h 77 % 0 mm 0.0 W/m2 CLR
20:57 -16.6 °C -18.4 °C 35129.8 hPa WNW 23.8 km/h 23.8 km/h 78 % 0 mm 0.0 W/m2 CLR
21:02 -16.6 °C -18.4 °C 35129.8 hPa WNW 20.9 km/h 20.9 km/h 78 % 0 mm 0.0 W/m2 CLR
21:05 -16.6 °C -18.4 °C 35129.8 hPa WNW 32.8 km/h 32.8 km/h 78 % 0 mm 0.0 W/m2 CLR
21:10 -16.6 °C -18.6 °C 35129.8 hPa West 15.6 km/h 15.6 km/h 77 % 0 mm 0.0 W/m2 CLR
21:13 -16.6 °C -18.6 °C 35129.8 hPa West 23.8 km/h 23.8 km/h 77 % 0 mm 0.0 W/m2 CLR
21:18 -16.6 °C -18.6 °C 35129.8 hPa West 9 km/h 9 km/h 77 % 0 mm 0.0 W/m2 CLR
21:20 -16.6 °C -18.6 °C 35129.8 hPa WNW 18.2 km/h 18.2 km/h 77 % 0 mm 0.0 W/m2 CLR
21:25 -16.6 °C -18.4 °C 35129.8 hPa WNW 15 km/h 15 km/h 78 % 0 mm 0.0 W/m2 CLR
21:26 -16.6 °C -18.4 °C 35129.8 hPa West 17.9 km/h 17.9 km/h 78 % 0 mm 0.0 W/m2 CLR
21:29 -16.6 °C -18.4 °C 35129.8 hPa WNW 9 km/h 11.4 km/h 78 % 0 mm 0.0 W/m2 CLR
21:32 -16.6 °C -18.4 °C 35129.8 hPa West 17.9 km/h 17.9 km/h 78 % 0 mm 0.0 W/m2 CLR
21:37 -16.6 °C -18.4 °C 35129.8 hPa West 15 km/h 15 km/h 78 % 0 mm 0.0 W/m2 CLR
21:38 -16.6 °C -18.4 °C 35129.8 hPa West 15 km/h 15 km/h 78 % 0 mm 0.0 W/m2 CLR
21:43 -16.6 °C -18.4 °C 35129.8 hPa West 15 km/h 15 km/h 78 % 0 mm 0.0 W/m2 CLR
21:48 -16.6 °C -18.4 °C 35129.8 hPa West 11.9 km/h 11.9 km/h 78 % 0 mm 0.0 W/m2 CLR
21:53 -16.8 °C -18.7 °C 35129.8 hPa West 12.9 km/h 12.9 km/h 79 % 0 mm 0.0 W/m2 CLR
21:58 -16.8 °C -18.7 °C 35129.8 hPa West 11.9 km/h 11.9 km/h 79 % 0 mm 0.0 W/m2 CLR
21:59 -16.6 °C -18.4 °C 35129.8 hPa West 9 km/h 9 km/h 79 % 0 mm 0.0 W/m2 CLR
22:04 -16.6 °C -18.4 °C 35129.8 hPa West 23.8 km/h 23.8 km/h 79 % 0 mm 0.0 W/m2 CLR
22:09 -16.6 °C -18.3 °C 35129.8 hPa WNW 20.9 km/h 20.9 km/h 80 % 0 mm 0.0 W/m2 CLR
22:10 -16.6 °C -18.3 °C 35129.8 hPa WNW 20.9 km/h 20.9 km/h 80 % 0 mm 0.0 W/m2 CLR
22:16 -16.6 °C -18.3 °C 35129.8 hPa West 20.9 km/h 20.9 km/h 80 % 0 mm 0.0 W/m2 CLR
22:21 -16.6 °C -18.4 °C 35129.8 hPa West 23.8 km/h 23.8 km/h 79 % 0 mm 0.0 W/m2 CLR
22:23 -16.6 °C -18.4 °C 35129.8 hPa WNW 26.9 km/h 26.9 km/h 79 % 0 mm 0.0 W/m2 CLR
22:28 -16.8 °C -18.7 °C 35129.8 hPa West 26.9 km/h 26.9 km/h 79 % 0 mm 0.0 W/m2 CLR
22:33 -16.8 °C -18.7 °C 35129.8 hPa WNW 23.3 km/h 23.3 km/h 79 % 0 mm 0.0 W/m2 CLR
22:34 -16.8 °C -18.7 °C 35129.8 hPa WNW 17.9 km/h 17.9 km/h 79 % 0 mm 0.0 W/m2 CLR
22:38 -16.8 °C -18.7 °C 35129.8 hPa West 23.8 km/h 23.8 km/h 79 % 0 mm 0.0 W/m2 CLR
22:39 -16.8 °C -18.7 °C 35129.8 hPa WNW 23.8 km/h 23.8 km/h 79 % 0 mm 0.0 W/m2 CLR
22:43 -16.8 °C -18.7 °C 35129.8 hPa West 25.9 km/h 25.9 km/h 79 % 0 mm 0.0 W/m2 CLR
22:48 -17.2 °C -18.9 °C 35129.8 hPa West 23.8 km/h 23.8 km/h 79 % 0 mm 0.0 W/m2 CLR
22:49 -17.2 °C -18.9 °C 35129.8 hPa WNW 17.9 km/h 17.9 km/h 79 % 0 mm 0.0 W/m2 CLR
22:53 -17.2 °C -18.9 °C 35129.8 hPa WNW 23.8 km/h 23.8 km/h 79 % 0 mm 0.0 W/m2 CLR
22:56 -17.2 °C -18.9 °C 35129.8 hPa West 15.6 km/h 15.6 km/h 79 % 0 mm 0.0 W/m2 CLR
23:01 -17.2 °C -18.8 °C 35139.9 hPa West 11.9 km/h 11.9 km/h 80 % 0 mm 0.0 W/m2 CLR
23:02 -17.2 °C -18.8 °C 35139.9 hPa West 15 km/h 15 km/h 80 % 0 mm 0.0 W/m2 CLR
23:07 -17.2 °C -18.8 °C 35129.8 hPa West 20.9 km/h 20.9 km/h 80 % 0 mm 0.0 W/m2 CLR
23:12 -17.2 °C -18.8 °C 35139.9 hPa West 23.8 km/h 23.8 km/h 80 % 0 mm 0.0 W/m2 CLR
23:14 -17.2 °C -18.8 °C 35139.9 hPa West 17.9 km/h 17.9 km/h 80 % 0 mm 0.0 W/m2 CLR
23:19 -17.2 °C -18.8 °C 35139.9 hPa West 23.3 km/h 23.3 km/h 80 % 0 mm 0.0 W/m2 CLR
23:24 -17.2 °C -18.8 °C 35129.8 hPa West 23.8 km/h 23.8 km/h 80 % 0 mm 0.0 W/m2 CLR
23:25 -17.2 °C -18.8 °C 35139.9 hPa WNW 23.8 km/h 23.8 km/h 80 % 0 mm 0.0 W/m2 CLR
23:26 -17.2 °C -18.9 °C 35139.9 hPa West 23.8 km/h 23.8 km/h 79 % 0 mm 0.0 W/m2 CLR
23:31 -17.2 °C -18.9 °C 35139.9 hPa West 23.8 km/h 23.8 km/h 79 % 0 mm 0.0 W/m2 CLR
23:36 -17.2 °C -18.8 °C 35139.9 hPa West 23.8 km/h 23.8 km/h 80 % 0 mm 0.0 W/m2 CLR
23:41 -17.4 °C -19.3 °C 35139.9 hPa West 15 km/h 15 km/h 79 % 0 mm 0.0 W/m2 CLR
23:46 -17.4 °C -19.2 °C 35139.9 hPa West 15.6 km/h 15.6 km/h 80 % 0 mm 0.0 W/m2 CLR
23:50 -17.2 °C -18.8 °C 35139.9 hPa West 12.9 km/h 13.5 km/h 80 % 0 mm 0.0 W/m2 CLR
23:51 -17.2 °C -18.8 °C 35139.9 hPa West 11.9 km/h 11.9 km/h 80 % 0 mm 0.0 W/m2 CLR
23:56 -17.2 °C -18.8 °C 35139.9 hPa West 15 km/h 15 km/h 81 % 0 mm 0.0 W/m2 CLR
23:57 -17.2 °C -18.8 °C 35139.9 hPa West 15 km/h 15 km/h 81 % 0 mm 0.0 W/m2 CLR
23:59 -17.2 °C -18.8 °C 35139.9 hPa West 15 km/h 15 km/h 81 % 0 mm 0.0 W/m2 CLR
Lo Temps de Massalio
Compliments of Weather Underground - 1.5 mb